Bateman, Wisconsin
Current Conditions -  °F | °C
As of 4:39 AM on Thursday 18 Dec 2014 (Local Time) from KEAU Reporting Station
Overcast Overcast  
Wind Chill: 21°   Ceiling: 1500
Heat Index: 21°   Visibility: 10mi
Dew Point: 17°   Wind: 0mph
Humidity: 85%   Direction: NA
Pressure: 30.3"   Gusts: NA
Location:  44.9743°N, 91.4379°W
Report Text: KEAU 181039Z AUTO 00000KT 10SM OVC015 M06/M08 A3030 RMK AO2 T10611083
Loading
Personal Weather Stations






























Interactive Weather Map New forecast layout! Learn more

10-Day Weather Forecast

Advertisements
Track Severe Weather on mobile